createdAt,value
2019-02-26T00:00:10.263Z,62.72
2019-02-26T00:01:08.806Z,62.72
2019-02-26T00:02:08.807Z,62.62
2019-02-26T00:03:08.801Z,62.30
2019-02-26T00:04:08.777Z,62.62
2019-02-26T00:05:08.769Z,62.93
2019-02-26T00:06:08.738Z,63.54
2019-02-26T00:07:09.355Z,62.85
2019-02-26T00:08:08.749Z,62.75
2019-02-26T00:09:08.762Z,62.75
2019-02-26T00:10:08.724Z,62.65
2019-02-26T00:11:10.686Z,62.41
2019-02-26T00:12:08.726Z,62.75
2019-02-26T00:13:08.718Z,62.72
2019-02-26T00:14:13.148Z,62.72
2019-02-26T00:15:09.663Z,63.26
2019-02-26T00:16:10.558Z,64.20
2019-02-26T00:17:10.645Z,64.09
2019-02-26T00:18:11.534Z,63.89
2019-02-26T00:19:09.787Z,64.02
2019-02-26T00:20:10.958Z,64.71
2019-02-26T00:21:08.555Z,64.51
2019-02-26T00:22:09.515Z,63.99
2019-02-26T00:23:09.361Z,64.64
2019-02-26T00:24:09.892Z,64.12
2019-02-26T00:25:10.338Z,64.02
2019-02-26T00:26:10.462Z,64.23
2019-02-26T00:27:09.735Z,64.23
2019-02-26T00:28:08.507Z,64.25
2019-02-26T00:29:08.497Z,64.64
2019-02-26T00:30:09.580Z,64.25
2019-02-26T00:31:08.492Z,64.46
2019-02-26T00:32:09.943Z,64.98
2019-02-26T00:33:08.463Z,64.77
2019-02-26T00:34:10.656Z,64.87
2019-02-26T00:35:08.417Z,64.98
2019-02-26T00:36:09.084Z,65.19
2019-02-26T00:37:08.531Z,64.67
2019-02-26T00:38:09.028Z,64.56
2019-02-26T00:39:08.465Z,65.19
2019-02-26T00:40:10.030Z,65.19
2019-02-26T00:41:08.341Z,65.39
2019-02-26T00:42:08.430Z,64.87
2019-02-26T00:43:08.411Z,65.08
2019-02-26T00:44:08.375Z,64.36
2019-02-26T00:45:08.347Z,64.36
2019-02-26T00:46:10.264Z,64.46
2019-02-26T00:47:09.028Z,64.36
2019-02-26T00:48:08.282Z,64.04
2019-02-26T00:49:08.305Z,64.87
2019-02-26T00:50:09.552Z,64.67
2019-02-26T00:51:08.270Z,64.67
2019-02-26T00:52:09.297Z,64.87
2019-02-26T00:53:08.258Z,64.87
2019-02-26T00:54:08.243Z,64.90
2019-02-26T00:55:09.500Z,64.70
2019-02-26T00:56:10.209Z,65.11
2019-02-26T00:57:08.875Z,65.01
2019-02-26T00:58:09.040Z,65.11
2019-02-26T00:59:08.211Z,65.01
2019-02-26T01:00:09.799Z,65.11
2019-02-26T01:01:10.304Z,65.84
2019-02-26T01:02:08.135Z,64.90
2019-02-26T01:03:09.150Z,65.32
2019-02-26T01:04:08.149Z,65.63
2019-02-26T01:05:08.728Z,65.56
2019-02-26T01:06:08.100Z,65.94
2019-02-26T01:07:08.092Z,66.05
2019-02-26T01:08:12.357Z,66.38
2019-02-26T01:09:10.694Z,66.35
2019-02-26T01:10:08.085Z,66.46
2019-02-26T01:11:08.443Z,65.73
2019-02-26T01:12:09.236Z,66.38
2019-02-26T01:13:08.028Z,66.28
2019-02-26T01:14:08.043Z,66.28
2019-02-26T01:15:09.415Z,66.59
2019-02-26T01:16:08.004Z,66.08
2019-02-26T01:17:09.851Z,66.08
2019-02-26T01:18:08.007Z,66.46
2019-02-26T01:19:09.061Z,66.15
2019-02-26T01:20:07.960Z,65.73
2019-02-26T01:21:07.989Z,65.97
2019-02-26T01:22:07.942Z,66.25
2019-02-26T01:23:07.934Z,66.28
2019-02-26T01:24:08.624Z,65.94
2019-02-26T01:25:07.935Z,66.28
2019-02-26T01:26:10.037Z,65.94
2019-02-26T01:27:07.889Z,66.05
2019-02-26T01:28:07.892Z,66.35
2019-02-26T01:29:07.887Z,66.15
2019-02-26T01:30:07.891Z,66.15
2019-02-26T01:31:07.937Z,66.05
2019-02-26T01:32:11.014Z,67.21
2019-02-26T01:33:09.782Z,66.90
2019-02-26T01:34:11.021Z,67.00
2019-02-26T01:35:09.014Z,67.11
2019-02-26T01:36:07.820Z,67.11
2019-02-26T01:37:09.878Z,67.11
2019-02-26T01:38:07.761Z,66.93
2019-02-26T01:39:11.270Z,67.14
2019-02-26T01:40:12.273Z,66.83
2019-02-26T01:41:11.249Z,67.35
2019-02-26T01:42:07.799Z,67.03
2019-02-26T01:43:07.733Z,67.55
2019-02-26T01:44:08.827Z,67.76
2019-02-26T01:45:07.743Z,67.35
2019-02-26T01:46:09.547Z,67.35
2019-02-26T01:47:07.742Z,66.62
2019-02-26T01:48:09.239Z,66.93
2019-02-26T01:49:07.682Z,67.03
2019-02-26T01:50:09.344Z,67.24
2019-02-26T01:51:07.641Z,67.35
2019-02-26T01:52:08.421Z,66.72
2019-02-26T01:53:07.666Z,67.03
2019-02-26T01:54:09.862Z,67.45
2019-02-26T01:55:07.587Z,67.03
2019-02-26T01:56:07.597Z,67.24
2019-02-26T01:57:09.146Z,67.14
2019-02-26T01:58:07.585Z,67.24
2019-02-26T01:59:07.586Z,67.35
2019-02-26T02:00:07.544Z,67.79
2019-02-26T02:01:09.951Z,67.17
2019-02-26T02:02:12.250Z,67.38
2019-02-26T02:03:08.540Z,67.69
2019-02-26T02:04:08.765Z,67.79
2019-02-26T02:05:07.490Z,68.41
2019-02-26T02:06:09.018Z,68.00
2019-02-26T02:07:07.481Z,67.90
2019-02-26T02:08:11.028Z,67.90
2019-02-26T02:09:11.289Z,68.21
2019-02-26T02:10:07.466Z,68.31
2019-02-26T02:11:09.236Z,68.55
2019-02-26T02:12:08.860Z,68.31
2019-02-26T02:13:09.167Z,68.76
2019-02-26T02:14:08.217Z,68.76
2019-02-26T02:15:08.090Z,69.27
2019-02-26T02:16:09.001Z,69.17
2019-02-26T02:17:08.522Z,69.48
2019-02-26T02:18:07.424Z,69.07
2019-02-26T02:19:07.371Z,68.96
2019-02-26T02:20:07.958Z,69.59
2019-02-26T02:21:07.410Z,69.48
2019-02-26T02:22:07.383Z,69.48
2019-02-26T02:23:07.328Z,69.69
2019-02-26T02:24:10.786Z,69.90
2019-02-26T02:25:08.288Z,70.10
2019-02-26T02:26:09.403Z,69.93
2019-02-26T02:27:07.408Z,70.45
2019-02-26T02:28:07.253Z,70.42
2019-02-26T02:29:07.300Z,70.21
2019-02-26T02:30:07.238Z,69.79
2019-02-26T02:31:07.241Z,70.10
2019-02-26T02:32:07.690Z,70.10
2019-02-26T02:33:07.193Z,70.10
2019-02-26T02:34:07.166Z,70.14
2019-02-26T02:35:09.448Z,70.42
2019-02-26T02:36:07.217Z,70.52
2019-02-26T02:37:07.190Z,70.10
2019-02-26T02:38:07.211Z,70.10
2019-02-26T02:39:10.387Z,70.31
2019-02-26T02:40:07.190Z,69.90
2019-02-26T02:41:16.976Z,69.48
2019-02-26T02:42:18.921Z,69.38
2019-02-26T02:43:18.006Z,69.45
2019-02-26T02:44:17.873Z,70.10
2019-02-26T02:45:20.205Z,69.90
2019-02-26T02:46:07.077Z,70.00
2019-02-26T02:47:16.746Z,69.69
2019-02-26T02:48:08.994Z,69.48
2019-02-26T02:49:07.994Z,69.76
2019-02-26T02:50:09.232Z,69.48
2019-02-26T02:51:08.467Z,69.69
2019-02-26T02:52:09.059Z,70.10
2019-02-26T02:53:07.007Z,70.00
2019-02-26T02:54:06.966Z,70.31
2019-02-26T02:55:09.895Z,70.21
2019-02-26T02:56:17.835Z,70.21
2019-02-26T02:57:09.435Z,70.21
2019-02-26T02:58:06.937Z,70.31
2019-02-26T02:59:08.833Z,70.42
2019-02-26T03:00:08.534Z,70.10
2019-02-26T03:01:07.301Z,70.94
2019-02-26T03:02:06.906Z,70.21
2019-02-26T03:03:06.912Z,70.94
2019-02-26T03:04:06.933Z,70.31
2019-02-26T03:05:06.873Z,70.31
2019-02-26T03:06:07.780Z,70.21
2019-02-26T03:07:06.876Z,70.42
2019-02-26T03:08:08.082Z,70.42
2019-02-26T03:09:08.737Z,70.62
2019-02-26T03:10:09.535Z,70.31
2019-02-26T03:11:06.787Z,71.04
2019-02-26T03:12:17.207Z,70.62
2019-02-26T03:13:17.066Z,70.83
2019-02-26T03:14:18.474Z,70.83
2019-02-26T03:15:16.773Z,70.62
2019-02-26T03:16:06.728Z,70.42
2019-02-26T03:17:09.184Z,70.35
2019-02-26T03:18:17.280Z,71.39
2019-02-26T03:19:07.744Z,71.45
2019-02-26T03:20:07.666Z,71.80
2019-02-26T03:21:06.708Z,71.91
2019-02-26T03:22:07.279Z,72.18
2019-02-26T03:24:27.656Z,72.01
2019-02-26T03:25:35.516Z,72.42
2019-02-26T03:26:25.893Z,72.22
2019-02-26T03:27:27.823Z,72.22
2019-02-26T03:28:24.064Z,72.32
2019-02-26T03:29:24.081Z,71.80
2019-02-26T03:30:32.135Z,72.32
2019-02-26T03:31:28.523Z,72.32
2019-02-26T03:32:24.018Z,72.63
2019-02-26T03:33:24.046Z,72.11
2019-02-26T03:34:25.285Z,72.22
2019-02-26T03:35:24.004Z,72.32
2019-02-26T03:36:23.967Z,72.11
2019-02-26T03:37:25.689Z,72.28
2019-02-26T03:38:26.234Z,72.42
2019-02-26T03:39:23.977Z,72.32
2019-02-26T03:40:26.558Z,72.22
2019-02-26T03:41:26.130Z,71.91
2019-02-26T03:42:23.918Z,72.63
2019-02-26T03:43:23.911Z,72.74
2019-02-26T03:44:23.903Z,73.05
2019-02-26T03:45:25.096Z,73.05
2019-02-26T03:46:23.896Z,72.94
2019-02-26T03:47:23.844Z,73.46
2019-02-26T03:48:23.856Z,73.57
2019-02-26T03:49:27.102Z,73.77
2019-02-26T03:50:26.434Z,73.80
2019-02-26T03:51:23.837Z,73.60
2019-02-26T03:52:23.811Z,74.01
2019-02-26T03:53:34.268Z,74.43
2019-02-26T03:54:23.761Z,73.49
2019-02-26T03:55:23.768Z,73.80
2019-02-26T03:56:24.411Z,74.01
2019-02-26T03:57:24.788Z,73.91
2019-02-26T03:58:23.723Z,73.80
2019-02-26T04:00:16.830Z,73.80
2019-02-26T04:01:18.326Z,73.60
2019-02-26T04:02:17.455Z,73.70
2019-02-26T04:03:17.312Z,73.80
2019-02-26T04:04:14.932Z,73.08
2019-02-26T04:05:14.941Z,73.08
2019-02-26T04:06:14.984Z,73.91
2019-02-26T04:07:14.946Z,73.91
2019-02-26T04:08:16.651Z,73.08
2019-02-26T04:09:17.219Z,73.08
2019-02-26T04:10:14.880Z,72.45
2019-02-26T04:11:16.855Z,72.74
2019-02-26T04:12:15.480Z,72.45
2019-02-26T04:13:14.887Z,72.66
2019-02-26T04:14:15.357Z,72.04
2019-02-26T04:15:14.890Z,72.45
2019-02-26T04:16:14.858Z,72.97
2019-02-26T04:17:14.800Z,72.97
2019-02-26T04:18:14.797Z,72.97
2019-02-26T04:19:14.799Z,72.74
2019-02-26T04:20:14.818Z,72.56
2019-02-26T04:21:15.790Z,72.77
2019-02-26T04:22:15.230Z,72.66
2019-02-26T04:23:18.714Z,72.84
2019-02-26T04:24:14.729Z,73.49
2019-02-26T04:25:14.730Z,73.77
2019-02-26T04:26:18.551Z,74.63
2019-02-26T04:27:15.708Z,73.46
2019-02-26T04:28:14.732Z,73.60
2019-02-26T04:29:14.673Z,73.91
2019-02-26T04:30:16.241Z,73.91
2019-02-26T04:31:15.501Z,73.18
2019-02-26T04:32:15.950Z,73.28
2019-02-26T04:33:14.661Z,74.11
2019-02-26T04:34:14.652Z,74.11
2019-02-26T04:35:14.692Z,74.11
2019-02-26T04:36:16.794Z,74.22
2019-02-26T04:37:14.709Z,74.32
2019-02-26T04:38:14.562Z,74.74
2019-02-26T04:39:18.358Z,74.63
2019-02-26T04:40:14.614Z,74.53
2019-02-26T04:41:15.984Z,74.63
2019-02-26T04:42:17.619Z,74.95
2019-02-26T04:43:15.513Z,75.15
2019-02-26T04:44:14.520Z,75.36
2019-02-26T04:45:14.675Z,74.95
2019-02-26T04:46:17.553Z,75.05
2019-02-26T04:47:14.492Z,75.15
2019-02-26T04:48:17.136Z,75.26
2019-02-26T04:49:14.479Z,74.74
2019-02-26T04:50:14.496Z,74.95
2019-02-26T04:51:14.517Z,75.15
2019-02-26T04:52:17.286Z,75.15
2019-02-26T04:53:14.430Z,75.26
2019-02-26T04:54:21.109Z,75.05
2019-02-26T04:55:15.467Z,74.95
2019-02-26T04:56:15.065Z,75.46
2019-02-26T04:57:14.375Z,75.26
2019-02-26T04:58:15.542Z,75.05
2019-02-26T04:59:16.786Z,74.11
2019-02-26T05:00:14.373Z,75.15
2019-02-26T05:01:16.391Z,75.15
2019-02-26T05:02:14.387Z,74.32
2019-02-26T05:03:17.008Z,74.43
2019-02-26T05:04:14.368Z,74.95
2019-02-26T05:05:14.313Z,75.26
2019-02-26T05:06:14.393Z,74.32
2019-02-26T05:07:17.303Z,74.63
2019-02-26T05:08:17.649Z,74.53
2019-02-26T05:09:14.256Z,74.53
2019-02-26T05:10:14.279Z,74.19
2019-02-26T05:11:22.788Z,74.29
2019-02-26T05:12:15.832Z,74.22
2019-02-26T05:13:14.207Z,74.08
2019-02-26T05:14:15.393Z,73.77
2019-02-26T05:15:18.066Z,74.01
2019-02-26T05:16:15.172Z,74.71
2019-02-26T05:17:14.177Z,73.98
2019-02-26T05:18:14.168Z,73.98
2019-02-26T05:19:16.381Z,74.60
2019-02-26T05:20:16.574Z,74.60
2019-02-26T05:21:14.145Z,73.57
2019-02-26T05:22:14.189Z,73.98
2019-02-26T05:23:14.147Z,73.91
2019-02-26T05:24:15.735Z,74.29
2019-02-26T05:25:16.785Z,74.60
2019-02-26T05:26:17.850Z,74.29
2019-02-26T05:27:15.635Z,74.29
2019-02-26T05:28:15.618Z,74.29
2019-02-26T05:29:14.103Z,74.91
2019-02-26T05:30:17.163Z,75.02
2019-02-26T05:31:17.269Z,75.12
2019-02-26T05:32:14.023Z,75.12
2019-02-26T05:33:14.009Z,75.33
2019-02-26T05:34:15.145Z,74.71
2019-02-26T05:35:15.216Z,74.91
2019-02-26T05:36:15.100Z,74.60
2019-02-26T05:37:14.093Z,74.81
2019-02-26T05:38:13.934Z,74.60
2019-02-26T05:39:14.574Z,75.12
2019-02-26T05:40:16.396Z,74.91
2019-02-26T05:41:14.929Z,75.54
2019-02-26T05:42:14.093Z,75.33
2019-02-26T05:43:16.004Z,75.54
2019-02-26T05:44:17.549Z,75.12
2019-02-26T05:45:15.963Z,75.54
2019-02-26T05:46:16.024Z,75.09
2019-02-26T05:47:18.697Z,75.02
2019-02-26T05:48:20.579Z,74.91
2019-02-26T05:49:16.404Z,75.74
2019-02-26T05:50:16.601Z,75.12
2019-02-26T05:51:13.852Z,75.02
2019-02-26T05:52:18.631Z,74.50
2019-02-26T05:53:14.439Z,75.02
2019-02-26T05:54:15.294Z,75.54
2019-02-26T05:55:14.610Z,75.57
2019-02-26T05:56:14.583Z,75.57
2019-02-26T05:57:25.938Z,75.57
2019-02-26T05:58:18.038Z,75.88
2019-02-26T05:59:15.411Z,75.78
2019-02-26T06:00:17.237Z,75.57
2019-02-26T06:01:16.877Z,75.78
2019-02-26T06:02:16.196Z,75.78
2019-02-26T06:03:16.269Z,75.57
2019-02-26T06:04:15.033Z,75.46
2019-02-26T06:05:14.357Z,75.36
2019-02-26T06:06:14.056Z,75.67
2019-02-26T06:07:14.202Z,75.67
2019-02-26T06:08:13.770Z,75.50
2019-02-26T06:09:13.770Z,75.57
2019-02-26T06:10:13.748Z,75.71
2019-02-26T06:11:16.922Z,75.67
2019-02-26T06:12:16.085Z,75.36
2019-02-26T06:13:15.727Z,75.81
2019-02-26T06:14:14.219Z,75.98
2019-02-26T06:15:13.928Z,75.67
2019-02-26T06:16:14.293Z,75.57
2019-02-26T06:17:15.548Z,76.09
2019-02-26T06:18:14.075Z,75.57
2019-02-26T06:19:15.704Z,75.57
2019-02-26T06:20:13.536Z,75.92
2019-02-26T06:21:15.806Z,75.60
2019-02-26T06:22:17.012Z,75.78
2019-02-26T06:23:17.868Z,75.88
2019-02-26T06:24:13.612Z,75.50
2019-02-26T06:25:18.697Z,75.78
2019-02-26T06:26:17.638Z,75.78
2019-02-26T06:27:27.288Z,75.88
2019-02-26T06:28:16.119Z,75.57
2019-02-26T06:29:19.948Z,75.67
2019-02-26T06:30:14.423Z,75.57
2019-02-26T06:31:14.639Z,75.57
2019-02-26T06:32:13.402Z,75.67
2019-02-26T06:33:14.051Z,75.57
2019-02-26T06:34:14.339Z,75.78
2019-02-26T06:35:14.292Z,75.88
2019-02-26T06:36:13.339Z,75.98
2019-02-26T06:37:13.931Z,75.98
2019-02-26T06:38:13.351Z,76.19
2019-02-26T06:39:13.313Z,75.36
2019-02-26T06:40:13.331Z,75.46
2019-02-26T06:41:13.279Z,75.57
2019-02-26T06:42:14.500Z,75.88
2019-02-26T06:43:13.246Z,76.09
2019-02-26T06:44:13.241Z,76.09
2019-02-26T06:45:13.904Z,76.29
2019-02-26T06:46:14.191Z,75.98
2019-02-26T06:47:13.216Z,75.78
2019-02-26T06:48:16.937Z,76.09
2019-02-26T06:49:14.958Z,76.29
2019-02-26T06:50:15.333Z,75.98
2019-02-26T06:51:13.242Z,75.98
2019-02-26T06:52:15.359Z,76.19
2019-02-26T06:53:13.636Z,76.71
2019-02-26T06:54:15.373Z,76.40
2019-02-26T06:55:13.147Z,76.40
2019-02-26T06:56:13.135Z,76.71
2019-02-26T06:57:13.168Z,76.50
2019-02-26T06:58:13.102Z,76.61
2019-02-26T06:59:13.143Z,76.71
2019-02-26T07:00:13.073Z,76.29
2019-02-26T07:01:14.333Z,76.29
2019-02-26T07:02:13.118Z,76.19
2019-02-26T07:03:13.050Z,75.98
2019-02-26T07:04:13.105Z,76.29
2019-02-26T07:05:13.033Z,76.19
2019-02-26T07:06:13.031Z,75.67
2019-02-26T07:07:14.447Z,76.19
2019-02-26T07:08:13.011Z,76.50
2019-02-26T07:09:13.783Z,76.50
2019-02-26T07:10:15.970Z,76.61
2019-02-26T07:11:13.990Z,76.40
2019-02-26T07:12:14.627Z,76.09
2019-02-26T07:13:14.153Z,76.09
2019-02-26T07:14:12.949Z,75.88
2019-02-26T07:15:12.940Z,76.19
2019-02-26T07:16:12.955Z,75.46
2019-02-26T07:17:12.927Z,75.57
2019-02-26T07:18:16.992Z,75.98
2019-02-26T07:19:15.097Z,75.98
2019-02-26T07:20:12.896Z,75.46
2019-02-26T07:21:12.853Z,74.95
2019-02-26T07:22:13.530Z,75.26
2019-02-26T07:23:14.952Z,75.46
2019-02-26T07:24:12.885Z,75.46
2019-02-26T07:25:15.334Z,75.26
2019-02-26T07:26:13.619Z,75.33
2019-02-26T07:27:13.923Z,75.98
2019-02-26T07:28:12.793Z,75.23
2019-02-26T07:29:14.389Z,73.77
2019-02-26T07:30:12.773Z,74.19
2019-02-26T07:31:12.747Z,74.15
2019-02-26T07:32:14.601Z,73.74
2019-02-26T07:33:15.053Z,73.94
2019-02-26T07:34:12.786Z,73.91
2019-02-26T07:35:14.373Z,74.11
2019-02-26T07:36:12.702Z,73.91
2019-02-26T07:37:13.469Z,74.32
2019-02-26T07:38:12.683Z,74.11
2019-02-26T07:39:13.525Z,74.53
2019-02-26T07:40:15.193Z,73.80
2019-02-26T07:41:12.662Z,72.67
2019-02-26T07:42:14.716Z,71.94
2019-02-26T07:43:14.847Z,72.36
2019-02-26T07:44:15.561Z,72.74
2019-02-26T07:45:15.235Z,72.53
2019-02-26T07:46:14.471Z,72.19
2019-02-26T07:47:12.586Z,72.29
2019-02-26T07:48:16.069Z,71.88
2019-02-26T07:49:12.570Z,72.25
2019-02-26T07:50:14.583Z,71.63
2019-02-26T07:51:12.632Z,71.43
2019-02-26T07:52:12.545Z,71.63
2019-02-26T07:53:14.350Z,70.81
2019-02-26T07:54:12.510Z,70.29
2019-02-26T07:55:14.712Z,69.87
2019-02-26T07:56:12.711Z,70.26
2019-02-26T07:57:12.560Z,69.74
2019-02-26T07:58:13.763Z,69.32
2019-02-26T07:59:13.101Z,69.32
2019-02-26T08:00:12.460Z,69.43
2019-02-26T08:01:12.459Z,69.74
2019-02-26T08:02:13.585Z,69.84
2019-02-26T08:03:12.463Z,69.53
2019-02-26T08:04:13.576Z,69.53
2019-02-26T08:05:12.454Z,69.64
2019-02-26T08:06:14.054Z,69.43
2019-02-26T08:07:12.379Z,69.84
2019-02-26T08:08:14.225Z,69.64
2019-02-26T08:09:14.549Z,69.95
2019-02-26T08:10:14.484Z,70.36
2019-02-26T08:11:12.369Z,70.05
2019-02-26T08:12:13.706Z,69.32
2019-02-26T08:13:12.356Z,69.32
2019-02-26T08:14:14.362Z,69.95
2019-02-26T08:15:12.822Z,69.81
2019-02-26T08:16:12.303Z,69.19
2019-02-26T08:17:12.270Z,69.09
2019-02-26T08:18:12.292Z,69.16
2019-02-26T08:19:12.297Z,69.06
2019-02-26T08:20:14.602Z,69.33
2019-02-26T08:21:12.234Z,68.37
2019-02-26T08:22:12.220Z,68.06
2019-02-26T08:23:12.207Z,67.65
2019-02-26T08:24:14.407Z,67.75
2019-02-26T08:25:12.204Z,67.24
2019-02-26T08:26:12.803Z,68.06
2019-02-26T08:27:13.574Z,68.48
2019-02-26T08:28:13.511Z,67.65
2019-02-26T08:29:12.507Z,67.58
2019-02-26T08:30:14.169Z,67.75
2019-02-26T08:31:15.455Z,68.48
2019-02-26T08:32:15.860Z,67.96
2019-02-26T08:33:13.147Z,67.96
2019-02-26T08:34:13.497Z,67.75
2019-02-26T08:35:12.091Z,67.65
2019-02-26T08:36:14.103Z,67.24
2019-02-26T08:37:12.052Z,67.51
2019-02-26T08:38:12.045Z,67.72
2019-02-26T08:39:14.948Z,67.07
2019-02-26T08:40:12.061Z,66.42
2019-02-26T08:41:12.099Z,66.73
2019-02-26T08:42:12.028Z,65.70
2019-02-26T08:43:12.018Z,64.36
2019-02-26T08:44:12.025Z,64.67
2019-02-26T08:45:12.494Z,65.11
2019-02-26T08:46:13.948Z,65.70
2019-02-26T08:47:14.015Z,65.59
2019-02-26T08:48:13.269Z,65.25
2019-02-26T08:49:13.756Z,64.22
2019-02-26T08:50:12.459Z,64.02
2019-02-26T08:51:16.051Z,64.43
2019-02-26T08:52:12.826Z,64.64
2019-02-26T08:53:11.893Z,64.81
2019-02-26T08:54:20.587Z,64.92
2019-02-26T08:55:13.650Z,64.61
2019-02-26T08:56:11.869Z,64.32
2019-02-26T08:57:12.052Z,64.95
2019-02-26T08:58:12.534Z,65.36
2019-02-26T08:59:11.835Z,64.95
2019-02-26T09:00:11.832Z,65.64
2019-02-26T09:01:11.818Z,65.02
2019-02-26T09:02:11.869Z,65.22
2019-02-26T09:03:13.837Z,65.74
2019-02-26T09:04:12.363Z,65.43
2019-02-26T09:05:11.994Z,65.02
2019-02-26T09:06:13.625Z,65.02
2019-02-26T09:07:11.745Z,64.99
2019-02-26T09:08:14.000Z,64.68
2019-02-26T09:09:11.727Z,64.78
2019-02-26T09:10:13.104Z,64.86
2019-02-26T09:11:13.539Z,64.34
2019-02-26T09:12:11.697Z,64.03
2019-02-26T09:13:13.840Z,63.72
2019-02-26T09:14:13.985Z,63.82
2019-02-26T09:15:11.674Z,63.52
2019-02-26T09:16:11.657Z,63.52
2019-02-26T09:17:11.644Z,63.69
2019-02-26T09:18:11.632Z,63.79
2019-02-26T09:19:11.633Z,63.69
2019-02-26T09:20:12.324Z,63.79
2019-02-26T09:21:13.467Z,64.00
2019-02-26T09:22:14.043Z,63.18
2019-02-26T09:23:16.386Z,62.53
2019-02-26T09:24:12.639Z,63.05
2019-02-26T09:25:11.552Z,62.63
2019-02-26T09:26:11.553Z,62.63
2019-02-26T09:27:11.544Z,62.33
2019-02-26T09:28:11.527Z,62.43
2019-02-26T09:29:12.721Z,62.63
2019-02-26T09:30:13.463Z,62.23
2019-02-26T09:31:12.275Z,63.87
2019-02-26T09:32:12.171Z,63.18
2019-02-26T09:33:11.508Z,63.18
2019-02-26T09:34:11.473Z,63.97
2019-02-26T09:35:12.265Z,63.97
2019-02-26T09:36:14.959Z,63.76
2019-02-26T09:37:11.460Z,62.40
2019-02-26T09:38:12.339Z,61.99
2019-02-26T09:39:13.035Z,61.99
2019-02-26T09:40:11.400Z,62.27
2019-02-26T09:41:12.254Z,61.86
2019-02-26T09:42:11.370Z,61.76
2019-02-26T09:43:12.914Z,61.24
2019-02-26T09:44:11.675Z,61.35
2019-02-26T09:45:11.395Z,62.51
2019-02-26T09:46:14.426Z,62.40
2019-02-26T09:47:11.332Z,62.06
2019-02-26T09:48:12.291Z,62.81
2019-02-26T09:49:12.629Z,62.68
2019-02-26T09:50:12.930Z,61.14
2019-02-26T09:51:12.447Z,60.60
2019-02-26T09:52:11.274Z,60.49
2019-02-26T09:53:11.275Z,61.86
2019-02-26T09:54:13.194Z,62.48
2019-02-26T09:55:11.261Z,62.16
2019-02-26T09:56:11.241Z,62.19
2019-02-26T09:57:11.273Z,62.06
2019-02-26T09:58:13.337Z,62.16
2019-02-26T09:59:13.042Z,62.85
2019-02-26T10:00:11.189Z,61.76
2019-02-26T10:01:13.403Z,62.75
2019-02-26T10:02:11.179Z,62.55
2019-02-26T10:03:13.220Z,62.65
2019-02-26T10:04:11.185Z,61.90
2019-02-26T10:05:11.788Z,61.29
2019-02-26T10:06:11.875Z,60.36
2019-02-26T10:07:11.834Z,60.95
2019-02-26T10:08:11.105Z,60.21
2019-02-26T10:09:13.160Z,60.54
2019-02-26T10:10:12.160Z,60.13
2019-02-26T10:11:11.065Z,60.36
2019-02-26T10:12:15.139Z,60.16
2019-02-26T10:13:11.043Z,60.57
2019-02-26T10:14:12.681Z,60.77
2019-02-26T10:15:11.025Z,60.98
2019-02-26T10:16:11.044Z,60.67
2019-02-26T10:17:12.214Z,61.18
2019-02-26T10:18:10.988Z,60.64
2019-02-26T10:19:12.629Z,60.10
2019-02-26T10:20:10.988Z,60.10
2019-02-26T10:21:12.332Z,59.89
2019-02-26T10:22:13.666Z,60.10
2019-02-26T10:23:10.943Z,60.21
2019-02-26T10:24:10.931Z,60.31
2019-02-26T10:25:10.927Z,60.38
2019-02-26T10:26:10.997Z,59.87
2019-02-26T10:27:12.096Z,59.66
2019-02-26T10:28:11.617Z,59.36
2019-02-26T10:29:10.884Z,59.89
2019-02-26T10:30:13.471Z,60.41
2019-02-26T10:31:10.865Z,60.10
2019-02-26T10:32:11.795Z,60.21
2019-02-26T10:33:10.865Z,60.31
2019-02-26T10:34:12.783Z,60.21
2019-02-26T10:35:14.013Z,60.17
2019-02-26T10:36:13.489Z,59.66
2019-02-26T10:37:10.822Z,59.23
2019-02-26T10:38:11.705Z,58.38
2019-02-26T10:39:10.776Z,58.48
2019-02-26T10:40:12.070Z,58.15
2019-02-26T10:41:10.762Z,57.59
2019-02-26T10:42:12.458Z,59.23
2019-02-26T10:43:11.048Z,59.02
2019-02-26T10:44:10.734Z,58.38
2019-02-26T10:45:10.712Z,58.35
2019-02-26T10:46:10.832Z,58.45
2019-02-26T10:47:10.775Z,58.25
2019-02-26T10:48:10.693Z,57.40
2019-02-26T10:49:12.401Z,56.97
2019-02-26T10:50:12.852Z,56.97
2019-02-26T10:51:10.652Z,56.46
2019-02-26T10:52:13.377Z,56.87
2019-02-26T10:53:13.775Z,56.35
2019-02-26T10:54:13.742Z,57.20
2019-02-26T10:55:14.980Z,57.40
2019-02-26T10:56:10.613Z,57.53
2019-02-26T10:57:11.902Z,57.12
2019-02-26T10:58:13.037Z,58.15
2019-02-26T10:59:12.712Z,58.04
2019-02-26T11:00:11.574Z,57.84
2019-02-26T11:01:10.560Z,57.40
2019-02-26T11:02:10.538Z,56.87
2019-02-26T11:03:12.901Z,56.66
2019-02-26T11:04:10.511Z,56.15
2019-02-26T11:05:11.360Z,56.35
2019-02-26T11:06:13.108Z,56.35
2019-02-26T11:07:12.403Z,56.53
2019-02-26T11:08:10.491Z,56.33
2019-02-26T11:09:10.475Z,56.53
2019-02-26T11:10:11.915Z,55.00
2019-02-26T11:11:12.839Z,55.49
2019-02-26T11:12:10.449Z,56.10
2019-02-26T11:13:12.459Z,55.18
2019-02-26T11:14:11.313Z,55.36
2019-02-26T11:15:10.432Z,54.54
2019-02-26T11:16:10.443Z,54.51
2019-02-26T11:17:10.454Z,54.11
2019-02-26T11:18:11.784Z,54.11
2019-02-26T11:19:12.184Z,54.82
2019-02-26T11:20:10.363Z,54.49
2019-02-26T11:21:10.356Z,54.31
2019-02-26T11:22:10.382Z,54.82
2019-02-26T11:23:13.268Z,55.23
2019-02-26T11:24:11.259Z,54.44
2019-02-26T11:25:10.325Z,54.74
2019-02-26T11:26:12.556Z,54.64
2019-02-26T11:27:10.278Z,54.97
2019-02-26T11:28:12.845Z,55.36
2019-02-26T11:29:10.353Z,55.08
2019-02-26T11:30:10.258Z,55.05
2019-02-26T11:31:12.240Z,55.05
2019-02-26T11:32:11.144Z,55.87
2019-02-26T11:33:11.354Z,55.36
2019-02-26T11:34:12.757Z,54.92
2019-02-26T11:35:10.189Z,55.13
2019-02-26T11:36:12.604Z,55.33
2019-02-26T11:37:10.204Z,55.33
2019-02-26T11:38:12.327Z,54.54
2019-02-26T11:39:12.009Z,54.82
2019-02-26T11:40:10.185Z,55.46
2019-02-26T11:41:10.179Z,56.58
2019-02-26T11:42:10.531Z,56.17
2019-02-26T11:43:13.795Z,56.89
2019-02-26T11:44:12.689Z,56.58
2019-02-26T11:45:12.616Z,56.40
2019-02-26T11:46:10.106Z,56.48
2019-02-26T11:47:11.216Z,56.79
2019-02-26T11:48:10.144Z,56.76
2019-02-26T11:49:11.881Z,56.84
2019-02-26T11:50:11.801Z,56.12
2019-02-26T11:51:11.958Z,54.77
2019-02-26T11:52:10.004Z,54.33
2019-02-26T11:53:10.110Z,54.72
2019-02-26T11:54:10.752Z,54.36
2019-02-26T11:55:11.277Z,54.67
2019-02-26T11:56:10.018Z,54.57
2019-02-26T11:57:11.236Z,55.38
2019-02-26T11:58:10.209Z,55.58
2019-02-26T11:59:12.455Z,54.36
2019-02-26T12:00:09.935Z,55.07
2019-02-26T12:01:09.915Z,55.05
2019-02-26T12:02:09.933Z,55.48
2019-02-26T12:03:09.928Z,55.99
2019-02-26T12:04:11.219Z,55.56
2019-02-26T12:05:10.752Z,55.26
2019-02-26T12:06:09.884Z,54.74
2019-02-26T12:07:09.922Z,54.21
2019-02-26T12:08:11.497Z,54.74
2019-02-26T12:09:11.429Z,54.41
2019-02-26T12:10:12.393Z,54.00
2019-02-26T12:12:11.634Z,54.33
2019-02-26T12:13:09.794Z,55.28
2019-02-26T12:14:10.966Z,56.53
2019-02-26T12:15:12.298Z,56.63
2019-02-26T12:16:09.775Z,56.84
2019-02-26T12:17:09.741Z,57.55
2019-02-26T12:18:10.587Z,57.86
2019-02-26T12:19:10.795Z,57.24
2019-02-26T12:20:09.696Z,56.94
2019-02-26T12:21:10.544Z,57.04
2019-02-26T12:22:09.739Z,57.45
2019-02-26T12:23:11.549Z,57.65
2019-02-26T12:24:12.007Z,57.86
2019-02-26T12:25:11.104Z,57.86
2019-02-26T12:26:09.665Z,58.67
2019-02-26T12:27:10.827Z,58.91
2019-02-26T12:28:11.575Z,59.41
2019-02-26T12:29:09.614Z,59.49
2019-02-26T12:30:10.096Z,59.28
2019-02-26T12:31:12.647Z,59.39
2019-02-26T12:32:09.585Z,59.49
2019-02-26T12:33:12.182Z,59.18
2019-02-26T12:34:11.816Z,59.49
2019-02-26T12:35:12.142Z,59.49
2019-02-26T12:36:10.264Z,59.39
2019-02-26T12:37:11.693Z,59.39
2019-02-26T12:39:10.503Z,58.72
2019-02-26T12:40:10.413Z,58.41
2019-02-26T12:41:12.032Z,58.41
2019-02-26T12:42:10.651Z,58.01
2019-02-26T12:43:11.888Z,57.57
2019-02-26T12:44:13.307Z,57.37
2019-02-26T12:45:13.080Z,57.37
2019-02-26T12:46:09.444Z,57.06
2019-02-26T12:47:11.515Z,57.26
2019-02-26T12:48:10.205Z,57.04
2019-02-26T12:49:12.012Z,56.22
2019-02-26T12:50:11.539Z,56.09
2019-02-26T12:51:09.462Z,55.79
2019-02-26T12:52:09.370Z,56.20
2019-02-26T12:53:12.736Z,54.66
2019-02-26T12:54:13.704Z,56.50
2019-02-26T12:55:10.538Z,54.87
2019-02-26T12:56:09.343Z,55.86